Terminal Aerodrome Forecast
Issued by NWS Tulsa, OK

Home | Current Version | Previous Version | Text Only | Print | Product List | Glossary On
Versions: 1 2 3 4 5 6 7 8 9 10 11 12 13 14
000
FTUS44 KTSA 231700
TAFTUL
TAF
KTUL 231720Z 2318/2418 18011KT P6SM BKN250
     FM240300 15005KT P6SM BKN150
     FM241500 17009KT P6SM BKN050=

USA.gov is the U.S. government's official web portal to all federal, state and local government web resources and services.